sensor_id;sensor_type;location;lat;lon;timestamp;P1;durP1;ratioP1;P2;durP2;ratioP2
22660;SDS011;11497;52.222;21.246;2024-03-29T00:02:23;23.20;;;15.15;;
22660;SDS011;11497;52.222;21.246;2024-03-29T00:04:50;25.23;;;14.48;;
22660;SDS011;11497;52.222;21.246;2024-03-29T00:07:17;22.85;;;13.27;;
22660;SDS011;11497;52.222;21.246;2024-03-29T00:09:43;21.50;;;12.57;;
22660;SDS011;11497;52.222;21.246;2024-03-29T00:12:10;18.80;;;12.27;;
22660;SDS011;11497;52.222;21.246;2024-03-29T00:14:37;20.42;;;12.18;;
22660;SDS011;11497;52.222;21.246;2024-03-29T00:17:05;19.27;;;11.00;;
22660;SDS011;11497;52.222;21.246;2024-03-29T00:19:32;16.83;;;10.82;;
22660;SDS011;11497;52.222;21.246;2024-03-29T00:21:59;20.38;;;11.20;;
22660;SDS011;11497;52.222;21.246;2024-03-29T00:24:26;19.23;;;9.88;;
22660;SDS011;11497;52.222;21.246;2024-03-29T00:26:53;17.77;;;9.63;;
22660;SDS011;11497;52.222;21.246;2024-03-29T00:29:20;18.15;;;9.95;;
22660;SDS011;11497;52.222;21.246;2024-03-29T00:31:47;15.55;;;9.45;;
22660;SDS011;11497;52.222;21.246;2024-03-29T00:34:14;12.82;;;8.40;;
22660;SDS011;11497;52.222;21.246;2024-03-29T00:36:40;14.60;;;8.00;;
22660;SDS011;11497;52.222;21.246;2024-03-29T00:39:07;13.50;;;7.85;;
22660;SDS011;11497;52.222;21.246;2024-03-29T00:41:37;10.90;;;7.10;;
22660;SDS011;11497;52.222;21.246;2024-03-29T00:44:04;11.70;;;7.03;;
22660;SDS011;11497;52.222;21.246;2024-03-29T00:46:30;15.43;;;8.10;;
22660;SDS011;11497;52.222;21.246;2024-03-29T00:48:57;11.25;;;7.25;;
22660;SDS011;11497;52.222;21.246;2024-03-29T00:51:24;12.82;;;7.50;;
22660;SDS011;11497;52.222;21.246;2024-03-29T00:53:51;12.50;;;7.47;;
22660;SDS011;11497;52.222;21.246;2024-03-29T00:56:19;11.52;;;7.40;;
22660;SDS011;11497;52.222;21.246;2024-03-29T00:58:46;13.38;;;7.03;;
22660;SDS011;11497;52.222;21.246;2024-03-29T01:01:13;11.65;;;7.05;;
22660;SDS011;11497;52.222;21.246;2024-03-29T01:03:40;11.10;;;7.57;;
22660;SDS011;11497;52.222;21.246;2024-03-29T01:06:07;13.10;;;7.18;;
22660;SDS011;11497;52.222;21.246;2024-03-29T01:08:34;10.43;;;7.63;;
22660;SDS011;11497;52.222;21.246;2024-03-29T01:11:01;13.25;;;7.30;;
22660;SDS011;11497;52.222;21.246;2024-03-29T01:13:28;12.15;;;7.43;;
22660;SDS011;11497;52.222;21.246;2024-03-29T01:15:54;13.20;;;7.45;;
22660;SDS011;11497;52.222;21.246;2024-03-29T01:18:22;12.30;;;7.18;;
22660;SDS011;11497;52.222;21.246;2024-03-29T01:20:48;13.88;;;7.60;;
22660;SDS011;11497;52.222;21.246;2024-03-29T01:23:15;13.88;;;8.20;;
22660;SDS011;11497;52.222;21.246;2024-03-29T01:25:42;10.80;;;7.30;;
22660;SDS011;11497;52.222;21.246;2024-03-29T01:28:09;12.73;;;7.88;;
22660;SDS011;11497;52.222;21.246;2024-03-29T01:30:36;12.13;;;7.53;;
22660;SDS011;11497;52.222;21.246;2024-03-29T01:33:03;12.25;;;7.63;;
22660;SDS011;11497;52.222;21.246;2024-03-29T01:35:30;12.43;;;7.65;;
22660;SDS011;11497;52.222;21.246;2024-03-29T01:37:57;15.80;;;7.82;;
22660;SDS011;11497;52.222;21.246;2024-03-29T01:40:23;13.30;;;7.10;;
22660;SDS011;11497;52.222;21.246;2024-03-29T01:42:53;13.60;;;7.25;;
22660;SDS011;11497;52.222;21.246;2024-03-29T01:45:20;10.70;;;6.47;;
22660;SDS011;11497;52.222;21.246;2024-03-29T01:47:47;7.60;;;5.63;;
22660;SDS011;11497;52.222;21.246;2024-03-29T01:50:14;9.18;;;6.07;;
22660;SDS011;11497;52.222;21.246;2024-03-29T01:52:41;7.97;;;5.25;;
22660;SDS011;11497;52.222;21.246;2024-03-29T01:55:08;7.47;;;5.10;;
22660;SDS011;11497;52.222;21.246;2024-03-29T01:57:36;7.47;;;4.78;;
22660;SDS011;11497;52.222;21.246;2024-03-29T02:00:03;8.57;;;4.60;;
22660;SDS011;11497;52.222;21.246;2024-03-29T02:02:32;9.43;;;4.97;;
22660;SDS011;11497;52.222;21.246;2024-03-29T02:04:59;6.68;;;4.88;;
22660;SDS011;11497;52.222;21.246;2024-03-29T02:07:27;6.30;;;4.78;;
22660;SDS011;11497;52.222;21.246;2024-03-29T02:09:54;6.13;;;4.95;;
22660;SDS011;11497;52.222;21.246;2024-03-29T02:12:21;6.38;;;4.75;;
22660;SDS011;11497;52.222;21.246;2024-03-29T02:14:48;6.13;;;4.85;;
22660;SDS011;11497;52.222;21.246;2024-03-29T02:17:15;7.10;;;4.90;;
22660;SDS011;11497;52.222;21.246;2024-03-29T02:19:42;8.07;;;5.38;;
22660;SDS011;11497;52.222;21.246;2024-03-29T02:22:09;6.32;;;4.82;;
22660;SDS011;11497;52.222;21.246;2024-03-29T02:24:40;7.28;;;5.10;;
22660;SDS011;11497;52.222;21.246;2024-03-29T02:27:07;9.70;;;5.18;;
22660;SDS011;11497;52.222;21.246;2024-03-29T02:29:35;7.90;;;5.45;;
22660;SDS011;11497;52.222;21.246;2024-03-29T02:32:03;7.47;;;5.70;;
22660;SDS011;11497;52.222;21.246;2024-03-29T02:34:30;7.07;;;5.00;;
22660;SDS011;11497;52.222;21.246;2024-03-29T02:36:57;7.85;;;4.90;;
22660;SDS011;11497;52.222;21.246;2024-03-29T02:39:24;7.43;;;5.05;;
22660;SDS011;11497;52.222;21.246;2024-03-29T02:41:51;7.80;;;5.10;;
22660;SDS011;11497;52.222;21.246;2024-03-29T02:44:18;6.05;;;4.68;;
22660;SDS011;11497;52.222;21.246;2024-03-29T02:46:45;8.27;;;4.93;;
22660;SDS011;11497;52.222;21.246;2024-03-29T02:49:12;7.00;;;4.80;;
22660;SDS011;11497;52.222;21.246;2024-03-29T02:51:39;5.72;;;4.68;;
22660;SDS011;11497;52.222;21.246;2024-03-29T02:54:05;7.32;;;5.00;;
22660;SDS011;11497;52.222;21.246;2024-03-29T02:56:32;6.40;;;5.07;;
22660;SDS011;11497;52.222;21.246;2024-03-29T02:58:59;7.97;;;5.22;;
22660;SDS011;11497;52.222;21.246;2024-03-29T03:01:26;6.47;;;4.72;;
22660;SDS011;11497;52.222;21.246;2024-03-29T03:03:53;8.50;;;4.50;;
22660;SDS011;11497;52.222;21.246;2024-03-29T03:06:20;7.72;;;4.70;;
22660;SDS011;11497;52.222;21.246;2024-03-29T03:08:47;5.60;;;4.72;;
22660;SDS011;11497;52.222;21.246;2024-03-29T03:11:32;5.18;;;4.28;;
22660;SDS011;11497;52.222;21.246;2024-03-29T03:13:59;7.40;;;4.50;;
22660;SDS011;11497;52.222;21.246;2024-03-29T03:16:26;6.30;;;4.05;;
22660;SDS011;11497;52.222;21.246;2024-03-29T03:18:53;6.43;;;3.97;;
22660;SDS011;11497;52.222;21.246;2024-03-29T03:21:20;4.82;;;3.70;;
22660;SDS011;11497;52.222;21.246;2024-03-29T03:23:47;5.93;;;4.00;;
22660;SDS011;11497;52.222;21.246;2024-03-29T03:26:14;6.43;;;4.10;;
22660;SDS011;11497;52.222;21.246;2024-03-29T03:28:41;5.95;;;4.10;;
22660;SDS011;11497;52.222;21.246;2024-03-29T03:31:08;8.10;;;4.28;;
22660;SDS011;11497;52.222;21.246;2024-03-29T03:33:34;6.95;;;4.28;;
22660;SDS011;11497;52.222;21.246;2024-03-29T03:36:01;7.13;;;4.00;;
22660;SDS011;11497;52.222;21.246;2024-03-29T03:38:28;5.57;;;3.72;;
22660;SDS011;11497;52.222;21.246;2024-03-29T03:40:57;10.30;;;4.00;;
22660;SDS011;11497;52.222;21.246;2024-03-29T03:43:24;4.10;;;3.70;;
22660;SDS011;11497;52.222;21.246;2024-03-29T03:45:51;6.43;;;3.80;;
22660;SDS011;11497;52.222;21.246;2024-03-29T03:48:17;6.32;;;3.88;;
22660;SDS011;11497;52.222;21.246;2024-03-29T03:50:44;4.95;;;3.70;;
22660;SDS011;11497;52.222;21.246;2024-03-29T03:53:11;6.07;;;3.88;;
22660;SDS011;11497;52.222;21.246;2024-03-29T03:55:38;5.93;;;3.40;;
22660;SDS011;11497;52.222;21.246;2024-03-29T03:58:05;4.95;;;3.50;;
22660;SDS011;11497;52.222;21.246;2024-03-29T04:00:33;5.35;;;3.75;;
22660;SDS011;11497;52.222;21.246;2024-03-29T04:02:59;6.95;;;3.80;;
22660;SDS011;11497;52.222;21.246;2024-03-29T04:05:27;6.55;;;3.30;;
22660;SDS011;11497;52.222;21.246;2024-03-29T04:07:57;6.78;;;3.65;;
22660;SDS011;11497;52.222;21.246;2024-03-29T04:10:25;5.25;;;3.78;;
22660;SDS011;11497;52.222;21.246;2024-03-29T04:12:52;6.43;;;3.85;;
22660;SDS011;11497;52.222;21.246;2024-03-29T04:15:19;5.13;;;3.55;;
22660;SDS011;11497;52.222;21.246;2024-03-29T04:17:46;3.70;;;3.35;;
22660;SDS011;11497;52.222;21.246;2024-03-29T04:20:13;4.43;;;3.47;;
22660;SDS011;11497;52.222;21.246;2024-03-29T04:22:39;5.43;;;3.50;;
22660;SDS011;11497;52.222;21.246;2024-03-29T04:25:06;10.82;;;5.25;;
22660;SDS011;11497;52.222;21.246;2024-03-29T04:27:33;8.43;;;4.43;;
22660;SDS011;11497;52.222;21.246;2024-03-29T04:30:00;9.05;;;5.50;;
22660;SDS011;11497;52.222;21.246;2024-03-29T04:32:28;16.60;;;7.07;;
22660;SDS011;11497;52.222;21.246;2024-03-29T04:34:55;14.80;;;6.57;;
22660;SDS011;11497;52.222;21.246;2024-03-29T04:37:22;22.45;;;7.63;;
22660;SDS011;11497;52.222;21.246;2024-03-29T04:39:49;20.05;;;7.32;;
22660;SDS011;11497;52.222;21.246;2024-03-29T04:42:15;33.42;;;10.52;;
22660;SDS011;11497;52.222;21.246;2024-03-29T04:44:42;28.58;;;9.40;;
22660;SDS011;11497;52.222;21.246;2024-03-29T04:47:09;50.83;;;14.13;;
22660;SDS011;11497;52.222;21.246;2024-03-29T04:49:36;24.42;;;8.35;;
22660;SDS011;11497;52.222;21.246;2024-03-29T04:52:04;12.77;;;5.47;;
22660;SDS011;11497;52.222;21.246;2024-03-29T04:54:32;8.00;;;4.00;;
22660;SDS011;11497;52.222;21.246;2024-03-29T04:57:00;16.23;;;6.35;;
22660;SDS011;11497;52.222;21.246;2024-03-29T04:59:28;28.48;;;8.63;;
22660;SDS011;11497;52.222;21.246;2024-03-29T05:01:55;25.25;;;8.00;;
22660;SDS011;11497;52.222;21.246;2024-03-29T05:04:24;8.90;;;4.20;;
22660;SDS011;11497;52.222;21.246;2024-03-29T05:06:54;6.22;;;3.30;;
22660;SDS011;11497;52.222;21.246;2024-03-29T05:09:23;5.45;;;3.70;;
22660;SDS011;11497;52.222;21.246;2024-03-29T05:11:50;5.43;;;3.35;;
22660;SDS011;11497;52.222;21.246;2024-03-29T05:14:19;6.30;;;4.43;;
22660;SDS011;11497;52.222;21.246;2024-03-29T05:16:48;4.75;;;3.50;;
22660;SDS011;11497;52.222;21.246;2024-03-29T05:19:15;4.32;;;3.50;;
22660;SDS011;11497;52.222;21.246;2024-03-29T05:21:42;9.95;;;4.35;;
22660;SDS011;11497;52.222;21.246;2024-03-29T05:24:10;5.53;;;4.03;;
22660;SDS011;11497;52.222;21.246;2024-03-29T05:26:37;4.95;;;3.72;;
22660;SDS011;11497;52.222;21.246;2024-03-29T05:29:04;6.30;;;3.95;;
22660;SDS011;11497;52.222;21.246;2024-03-29T05:31:31;6.93;;;4.07;;
22660;SDS011;11497;52.222;21.246;2024-03-29T05:33:58;11.48;;;5.57;;
22660;SDS011;11497;52.222;21.246;2024-03-29T05:36:26;8.00;;;4.22;;
22660;SDS011;11497;52.222;21.246;2024-03-29T05:38:53;10.20;;;4.82;;
22660;SDS011;11497;52.222;21.246;2024-03-29T05:41:19;14.20;;;6.30;;
22660;SDS011;11497;52.222;21.246;2024-03-29T05:43:47;11.40;;;4.90;;
22660;SDS011;11497;52.222;21.246;2024-03-29T05:46:15;12.10;;;4.75;;
22660;SDS011;11497;52.222;21.246;2024-03-29T05:48:43;11.02;;;5.30;;
22660;SDS011;11497;52.222;21.246;2024-03-29T05:51:10;7.90;;;4.65;;
22660;SDS011;11497;52.222;21.246;2024-03-29T05:53:37;6.22;;;3.05;;
22660;SDS011;11497;52.222;21.246;2024-03-29T05:56:04;5.10;;;3.22;;
22660;SDS011;11497;52.222;21.246;2024-03-29T05:58:33;7.20;;;3.20;;
22660;SDS011;11497;52.222;21.246;2024-03-29T06:01:00;7.22;;;3.88;;
22660;SDS011;11497;52.222;21.246;2024-03-29T06:03:27;7.60;;;3.80;;
22660;SDS011;11497;52.222;21.246;2024-03-29T06:05:56;5.68;;;3.05;;
22660;SDS011;11497;52.222;21.246;2024-03-29T06:08:22;12.10;;;5.60;;
22660;SDS011;11497;52.222;21.246;2024-03-29T06:10:51;22.08;;;8.15;;
22660;SDS011;11497;52.222;21.246;2024-03-29T06:13:18;4.53;;;2.45;;
22660;SDS011;11497;52.222;21.246;2024-03-29T06:16:04;9.23;;;3.35;;
22660;SDS011;11497;52.222;21.246;2024-03-29T06:18:50;8.95;;;4.90;;
22660;SDS011;11497;52.222;21.246;2024-03-29T06:21:17;10.57;;;4.70;;
22660;SDS011;11497;52.222;21.246;2024-03-29T06:23:44;8.43;;;4.07;;
22660;SDS011;11497;52.222;21.246;2024-03-29T06:26:11;6.53;;;3.55;;
22660;SDS011;11497;52.222;21.246;2024-03-29T06:28:38;6.85;;;4.05;;
22660;SDS011;11497;52.222;21.246;2024-03-29T06:31:05;3.97;;;2.63;;
22660;SDS011;11497;52.222;21.246;2024-03-29T06:33:32;7.45;;;3.63;;
22660;SDS011;11497;52.222;21.246;2024-03-29T06:35:58;4.35;;;2.92;;
22660;SDS011;11497;52.222;21.246;2024-03-29T06:38:26;3.00;;;2.40;;
22660;SDS011;11497;52.222;21.246;2024-03-29T06:40:52;3.35;;;2.53;;
22660;SDS011;11497;52.222;21.246;2024-03-29T06:43:19;4.78;;;2.72;;
22660;SDS011;11497;52.222;21.246;2024-03-29T06:45:46;4.05;;;2.53;;
22660;SDS011;11497;52.222;21.246;2024-03-29T06:48:13;3.13;;;2.70;;
22660;SDS011;11497;52.222;21.246;2024-03-29T06:50:40;4.60;;;2.50;;
22660;SDS011;11497;52.222;21.246;2024-03-29T06:53:07;6.80;;;3.65;;
22660;SDS011;11497;52.222;21.246;2024-03-29T06:55:35;4.32;;;2.47;;
22660;SDS011;11497;52.222;21.246;2024-03-29T06:58:03;5.25;;;2.83;;
22660;SDS011;11497;52.222;21.246;2024-03-29T07:00:30;5.47;;;2.78;;
22660;SDS011;11497;52.222;21.246;2024-03-29T07:02:57;4.00;;;2.42;;
22660;SDS011;11497;52.222;21.246;2024-03-29T07:05:24;3.88;;;2.78;;
22660;SDS011;11497;52.222;21.246;2024-03-29T07:07:51;4.45;;;3.00;;
22660;SDS011;11497;52.222;21.246;2024-03-29T07:10:19;4.40;;;2.38;;
22660;SDS011;11497;52.222;21.246;2024-03-29T07:12:46;3.53;;;2.40;;
22660;SDS011;11497;52.222;21.246;2024-03-29T07:15:13;15.13;;;5.47;;
22660;SDS011;11497;52.222;21.246;2024-03-29T07:17:40;3.78;;;2.70;;
22660;SDS011;11497;52.222;21.246;2024-03-29T07:20:09;3.45;;;2.40;;
22660;SDS011;11497;52.222;21.246;2024-03-29T07:22:37;5.28;;;2.60;;
22660;SDS011;11497;52.222;21.246;2024-03-29T07:25:04;4.20;;;2.30;;
22660;SDS011;11497;52.222;21.246;2024-03-29T07:27:31;4.40;;;2.30;;
22660;SDS011;11497;52.222;21.246;2024-03-29T07:30:04;4.70;;;2.85;;
22660;SDS011;11497;52.222;21.246;2024-03-29T07:32:33;15.43;;;6.25;;
22660;SDS011;11497;52.222;21.246;2024-03-29T07:35:00;16.65;;;5.60;;
22660;SDS011;11497;52.222;21.246;2024-03-29T07:37:29;8.10;;;3.85;;
22660;SDS011;11497;52.222;21.246;2024-03-29T07:39:55;17.88;;;6.15;;
22660;SDS011;11497;52.222;21.246;2024-03-29T07:42:22;10.68;;;4.70;;
22660;SDS011;11497;52.222;21.246;2024-03-29T07:44:49;5.20;;;2.88;;
22660;SDS011;11497;52.222;21.246;2024-03-29T07:47:16;3.15;;;2.22;;
22660;SDS011;11497;52.222;21.246;2024-03-29T07:49:43;3.42;;;2.50;;
22660;SDS011;11497;52.222;21.246;2024-03-29T07:52:11;4.03;;;2.40;;
22660;SDS011;11497;52.222;21.246;2024-03-29T07:54:38;5.65;;;2.70;;
22660;SDS011;11497;52.222;21.246;2024-03-29T07:57:05;3.42;;;1.90;;
22660;SDS011;11497;52.222;21.246;2024-03-29T07:59:34;2.65;;;1.92;;
22660;SDS011;11497;52.222;21.246;2024-03-29T08:02:01;5.78;;;2.00;;
22660;SDS011;11497;52.222;21.246;2024-03-29T08:04:28;3.03;;;1.85;;
22660;SDS011;11497;52.222;21.246;2024-03-29T08:06:55;2.65;;;1.73;;
22660;SDS011;11497;52.222;21.246;2024-03-29T08:09:22;3.80;;;1.98;;
22660;SDS011;11497;52.222;21.246;2024-03-29T08:11:49;2.75;;;1.85;;
22660;SDS011;11497;52.222;21.246;2024-03-29T08:14:16;2.75;;;1.67;;
22660;SDS011;11497;52.222;21.246;2024-03-29T08:16:44;2.75;;;1.90;;
22660;SDS011;11497;52.222;21.246;2024-03-29T08:19:11;2.22;;;1.50;;
22660;SDS011;11497;52.222;21.246;2024-03-29T08:21:38;2.42;;;1.70;;
22660;SDS011;11497;52.222;21.246;2024-03-29T08:24:05;2.30;;;1.60;;
22660;SDS011;11497;52.222;21.246;2024-03-29T08:26:32;2.20;;;1.45;;
22660;SDS011;11497;52.222;21.246;2024-03-29T08:29:00;4.00;;;1.75;;
22660;SDS011;11497;52.222;21.246;2024-03-29T08:31:27;3.88;;;1.85;;
22660;SDS011;11497;52.222;21.246;2024-03-29T08:33:54;2.42;;;1.67;;
22660;SDS011;11497;52.222;21.246;2024-03-29T08:36:21;3.08;;;2.05;;
22660;SDS011;11497;52.222;21.246;2024-03-29T08:38:48;2.63;;;1.83;;
22660;SDS011;11497;52.222;21.246;2024-03-29T08:41:15;3.38;;;2.10;;
22660;SDS011;11497;52.222;21.246;2024-03-29T08:43:41;2.40;;;1.60;;
22660;SDS011;11497;52.222;21.246;2024-03-29T08:46:08;3.53;;;1.73;;
22660;SDS011;11497;52.222;21.246;2024-03-29T08:48:35;2.10;;;1.60;;
22660;SDS011;11497;52.222;21.246;2024-03-29T08:51:05;3.72;;;1.80;;
22660;SDS011;11497;52.222;21.246;2024-03-29T08:53:32;3.95;;;1.70;;
22660;SDS011;11497;52.222;21.246;2024-03-29T08:55:59;6.57;;;1.80;;
22660;SDS011;11497;52.222;21.246;2024-03-29T08:58:26;3.25;;;1.60;;
22660;SDS011;11497;52.222;21.246;2024-03-29T09:00:53;2.72;;;1.60;;
22660;SDS011;11497;52.222;21.246;2024-03-29T09:03:22;2.33;;;1.55;;
22660;SDS011;11497;52.222;21.246;2024-03-29T09:05:50;2.75;;;1.70;;
22660;SDS011;11497;52.222;21.246;2024-03-29T09:08:18;3.45;;;1.70;;
22660;SDS011;11497;52.222;21.246;2024-03-29T09:10:45;2.83;;;1.60;;
22660;SDS011;11497;52.222;21.246;2024-03-29T09:13:13;1.83;;;1.52;;
22660;SDS011;11497;52.222;21.246;2024-03-29T09:15:41;3.95;;;1.45;;
22660;SDS011;11497;52.222;21.246;2024-03-29T09:18:08;2.88;;;1.60;;
22660;SDS011;11497;52.222;21.246;2024-03-29T09:20:56;2.72;;;1.60;;
22660;SDS011;11497;52.222;21.246;2024-03-29T09:23:24;1.80;;;1.30;;
22660;SDS011;11497;52.222;21.246;2024-03-29T09:25:54;3.47;;;1.65;;
22660;SDS011;11497;52.222;21.246;2024-03-29T09:28:22;2.65;;;1.10;;
22660;SDS011;11497;52.222;21.246;2024-03-29T09:30:49;2.42;;;1.20;;
22660;SDS011;11497;52.222;21.246;2024-03-29T09:33:22;3.90;;;1.52;;
22660;SDS011;11497;52.222;21.246;2024-03-29T09:35:50;3.10;;;1.60;;
22660;SDS011;11497;52.222;21.246;2024-03-29T09:38:17;2.92;;;1.60;;
22660;SDS011;11497;52.222;21.246;2024-03-29T09:40:44;3.38;;;1.50;;
22660;SDS011;11497;52.222;21.246;2024-03-29T09:43:11;1.77;;;1.20;;
22660;SDS011;11497;52.222;21.246;2024-03-29T09:45:43;2.30;;;1.50;;
22660;SDS011;11497;52.222;21.246;2024-03-29T09:48:10;3.67;;;1.27;;
22660;SDS011;11497;52.222;21.246;2024-03-29T09:50:38;2.97;;;1.40;;
22660;SDS011;11497;52.222;21.246;2024-03-29T09:53:05;2.03;;;1.30;;
22660;SDS011;11497;52.222;21.246;2024-03-29T09:55:35;2.25;;;1.40;;
22660;SDS011;11497;52.222;21.246;2024-03-29T09:58:02;2.83;;;1.42;;
22660;SDS011;11497;52.222;21.246;2024-03-29T10:00:31;2.50;;;1.40;;
22660;SDS011;11497;52.222;21.246;2024-03-29T10:02:58;5.28;;;1.30;;
22660;SDS011;11497;52.222;21.246;2024-03-29T10:05:26;5.10;;;1.35;;
22660;SDS011;11497;52.222;21.246;2024-03-29T10:07:54;2.50;;;1.40;;
22660;SDS011;11497;52.222;21.246;2024-03-29T10:10:22;2.55;;;1.40;;
22660;SDS011;11497;52.222;21.246;2024-03-29T10:12:49;2.70;;;1.70;;
22660;SDS011;11497;52.222;21.246;2024-03-29T10:15:16;3.90;;;2.03;;
22660;SDS011;11497;52.222;21.246;2024-03-29T10:17:46;3.00;;;1.70;;
22660;SDS011;11497;52.222;21.246;2024-03-29T10:20:17;2.78;;;1.60;;
22660;SDS011;11497;52.222;21.246;2024-03-29T10:22:45;3.10;;;2.15;;
22660;SDS011;11497;52.222;21.246;2024-03-29T10:25:13;3.08;;;2.03;;
22660;SDS011;11497;52.222;21.246;2024-03-29T10:27:40;3.17;;;2.05;;
22660;SDS011;11497;52.222;21.246;2024-03-29T10:30:08;4.15;;;1.80;;
22660;SDS011;11497;52.222;21.246;2024-03-29T10:32:39;5.25;;;2.20;;
22660;SDS011;11497;52.222;21.246;2024-03-29T10:35:08;2.75;;;2.10;;
22660;SDS011;11497;52.222;21.246;2024-03-29T10:37:38;3.72;;;1.95;;
22660;SDS011;11497;52.222;21.246;2024-03-29T10:40:09;3.08;;;1.98;;
22660;SDS011;11497;52.222;21.246;2024-03-29T10:42:37;3.38;;;2.10;;
22660;SDS011;11497;52.222;21.246;2024-03-29T10:45:07;2.22;;;1.90;;
22660;SDS011;11497;52.222;21.246;2024-03-29T10:47:34;3.40;;;1.88;;
22660;SDS011;11497;52.222;21.246;2024-03-29T10:50:02;2.80;;;2.00;;
22660;SDS011;11497;52.222;21.246;2024-03-29T10:52:31;4.00;;;2.25;;
22660;SDS011;11497;52.222;21.246;2024-03-29T10:54:59;4.32;;;2.15;;
22660;SDS011;11497;52.222;21.246;2024-03-29T10:57:27;3.22;;;2.13;;
22660;SDS011;11497;52.222;21.246;2024-03-29T11:05:23;3.00;;;1.90;;
22660;SDS011;11497;52.222;21.246;2024-03-29T11:07:54;2.20;;;1.95;;
22660;SDS011;11497;52.222;21.246;2024-03-29T11:16:05;4.00;;;1.98;;
22660;SDS011;11497;52.222;21.246;2024-03-29T11:18:33;2.15;;;1.58;;
22660;SDS011;11497;52.222;21.246;2024-03-29T11:21:04;3.33;;;1.65;;
22660;SDS011;11497;52.222;21.246;2024-03-29T11:23:35;2.10;;;1.65;;
22660;SDS011;11497;52.222;21.246;2024-03-29T11:26:02;4.07;;;1.70;;
22660;SDS011;11497;52.222;21.246;2024-03-29T11:28:31;4.10;;;1.60;;
22660;SDS011;11497;52.222;21.246;2024-03-29T11:31:01;3.35;;;1.70;;
22660;SDS011;11497;52.222;21.246;2024-03-29T11:33:35;5.18;;;1.52;;
22660;SDS011;11497;52.222;21.246;2024-03-29T11:38:42;4.88;;;1.80;;
22660;SDS011;11497;52.222;21.246;2024-03-29T11:41:12;2.33;;;1.45;;
22660;SDS011;11497;52.222;21.246;2024-03-29T11:43:40;2.67;;;1.45;;
22660;SDS011;11497;52.222;21.246;2024-03-29T11:46:09;3.40;;;1.30;;
22660;SDS011;11497;52.222;21.246;2024-03-29T11:48:37;2.78;;;1.50;;
22660;SDS011;11497;52.222;21.246;2024-03-29T11:51:10;3.90;;;1.52;;
22660;SDS011;11497;52.222;21.246;2024-03-29T11:53:39;2.70;;;1.30;;
22660;SDS011;11497;52.222;21.246;2024-03-29T11:56:08;3.50;;;1.40;;
22660;SDS011;11497;52.222;21.246;2024-03-29T11:58:37;2.47;;;1.65;;
22660;SDS011;11497;52.222;21.246;2024-03-29T12:01:08;3.80;;;1.20;;
22660;SDS011;11497;52.222;21.246;2024-03-29T12:03:39;3.85;;;1.20;;
22660;SDS011;11497;52.222;21.246;2024-03-29T12:06:08;2.67;;;1.60;;
22660;SDS011;11497;52.222;21.246;2024-03-29T12:08:37;4.65;;;1.30;;
22660;SDS011;11497;52.222;21.246;2024-03-29T12:11:05;1.85;;;1.10;;
22660;SDS011;11497;52.222;21.246;2024-03-29T12:13:32;3.58;;;1.50;;
22660;SDS011;11497;52.222;21.246;2024-03-29T12:16:00;3.05;;;1.38;;
22660;SDS011;11497;52.222;21.246;2024-03-29T12:18:29;1.70;;;1.30;;
22660;SDS011;11497;52.222;21.246;2024-03-29T12:20:59;4.13;;;1.55;;
22660;SDS011;11497;52.222;21.246;2024-03-29T12:23:26;2.00;;;1.30;;
22660;SDS011;11497;52.222;21.246;2024-03-29T12:25:55;5.68;;;1.55;;
22660;SDS011;11497;52.222;21.246;2024-03-29T12:28:23;2.53;;;1.10;;
22660;SDS011;11497;52.222;21.246;2024-03-29T12:30:51;1.83;;;1.20;;
22660;SDS011;11497;52.222;21.246;2024-03-29T12:33:21;2.35;;;1.30;;
22660;SDS011;11497;52.222;21.246;2024-03-29T12:35:49;2.88;;;1.42;;
22660;SDS011;11497;52.222;21.246;2024-03-29T12:38:19;3.63;;;1.35;;
22660;SDS011;11497;52.222;21.246;2024-03-29T12:40:48;3.97;;;1.40;;
22660;SDS011;11497;52.222;21.246;2024-03-29T12:43:19;3.45;;;1.25;;
22660;SDS011;11497;52.222;21.246;2024-03-29T12:45:48;2.50;;;1.40;;
22660;SDS011;11497;52.222;21.246;2024-03-29T12:48:17;2.13;;;1.55;;
22660;SDS011;11497;52.222;21.246;2024-03-29T12:50:46;4.50;;;1.50;;
22660;SDS011;11497;52.222;21.246;2024-03-29T12:53:14;3.88;;;1.38;;
22660;SDS011;11497;52.222;21.246;2024-03-29T12:55:42;2.03;;;1.45;;
22660;SDS011;11497;52.222;21.246;2024-03-29T12:58:14;2.78;;;1.33;;
22660;SDS011;11497;52.222;21.246;2024-03-29T13:00:43;2.78;;;1.23;;
22660;SDS011;11497;52.222;21.246;2024-03-29T13:03:10;2.17;;;1.58;;
22660;SDS011;11497;52.222;21.246;2024-03-29T13:05:38;3.72;;;1.70;;
22660;SDS011;11497;52.222;21.246;2024-03-29T13:08:13;5.18;;;1.35;;
22660;SDS011;11497;52.222;21.246;2024-03-29T13:10:43;2.85;;;1.30;;
22660;SDS011;11497;52.222;21.246;2024-03-29T13:13:10;1.85;;;1.40;;
22660;SDS011;11497;52.222;21.246;2024-03-29T13:15:38;2.08;;;1.20;;
22660;SDS011;11497;52.222;21.246;2024-03-29T13:18:07;2.88;;;1.38;;
22660;SDS011;11497;52.222;21.246;2024-03-29T13:20:37;1.75;;;1.30;;
22660;SDS011;11497;52.222;21.246;2024-03-29T13:23:07;1.45;;;1.30;;
22660;SDS011;11497;52.222;21.246;2024-03-29T13:25:34;3.80;;;1.25;;
22660;SDS011;11497;52.222;21.246;2024-03-29T13:28:01;2.97;;;1.40;;
22660;SDS011;11497;52.222;21.246;2024-03-29T13:30:29;3.08;;;1.42;;
22660;SDS011;11497;52.222;21.246;2024-03-29T13:32:55;3.30;;;1.30;;
22660;SDS011;11497;52.222;21.246;2024-03-29T13:35:23;1.30;;;1.20;;
22660;SDS011;11497;52.222;21.246;2024-03-29T13:37:50;3.83;;;1.48;;
22660;SDS011;11497;52.222;21.246;2024-03-29T13:40:22;2.80;;;1.27;;
22660;SDS011;11497;52.222;21.246;2024-03-29T13:42:52;4.55;;;1.20;;
22660;SDS011;11497;52.222;21.246;2024-03-29T13:45:19;2.42;;;1.30;;
22660;SDS011;11497;52.222;21.246;2024-03-29T13:47:46;2.45;;;1.17;;
22660;SDS011;11497;52.222;21.246;2024-03-29T13:50:13;3.05;;;1.20;;
22660;SDS011;11497;52.222;21.246;2024-03-29T13:52:41;2.05;;;1.10;;
22660;SDS011;11497;52.222;21.246;2024-03-29T13:55:09;2.08;;;1.10;;
22660;SDS011;11497;52.222;21.246;2024-03-29T13:57:36;1.50;;;1.17;;
22660;SDS011;11497;52.222;21.246;2024-03-29T14:00:04;2.10;;;1.02;;
22660;SDS011;11497;52.222;21.246;2024-03-29T14:02:32;1.30;;;1.20;;
22660;SDS011;11497;52.222;21.246;2024-03-29T14:05:00;3.25;;;1.10;;
22660;SDS011;11497;52.222;21.246;2024-03-29T14:07:27;3.55;;;1.42;;
22660;SDS011;11497;52.222;21.246;2024-03-29T14:09:54;3.55;;;1.30;;
22660;SDS011;11497;52.222;21.246;2024-03-29T14:12:21;1.83;;;1.40;;
22660;SDS011;11497;52.222;21.246;2024-03-29T14:14:51;2.10;;;1.40;;
22660;SDS011;11497;52.222;21.246;2024-03-29T14:17:18;1.40;;;1.00;;
22660;SDS011;11497;52.222;21.246;2024-03-29T14:19:46;2.95;;;1.45;;
22660;SDS011;11497;52.222;21.246;2024-03-29T14:22:14;2.22;;;1.10;;
22660;SDS011;11497;52.222;21.246;2024-03-29T14:24:42;3.10;;;1.30;;
22660;SDS011;11497;52.222;21.246;2024-03-29T14:27:09;2.33;;;1.40;;
22660;SDS011;11497;52.222;21.246;2024-03-29T14:29:38;5.50;;;1.17;;
22660;SDS011;11497;52.222;21.246;2024-03-29T14:32:05;2.25;;;1.20;;
22660;SDS011;11497;52.222;21.246;2024-03-29T14:34:32;4.53;;;1.27;;
22660;SDS011;11497;52.222;21.246;2024-03-29T14:37:04;2.25;;;1.17;;
22660;SDS011;11497;52.222;21.246;2024-03-29T14:39:31;3.92;;;1.83;;
22660;SDS011;11497;52.222;21.246;2024-03-29T14:41:58;2.25;;;1.40;;
22660;SDS011;11497;52.222;21.246;2024-03-29T14:44:30;3.78;;;1.40;;
22660;SDS011;11497;52.222;21.246;2024-03-29T14:46:57;2.17;;;1.40;;
22660;SDS011;11497;52.222;21.246;2024-03-29T14:49:24;2.55;;;1.38;;